sensor_id;sensor_type;location;lat;lon;timestamp;P1;durP1;ratioP1;P2;durP2;ratioP2
45784;SDS011;31489;51.404;5.474;2023-12-04T00:00:33;17.92;;;11.48;;
45784;SDS011;31489;51.404;5.474;2023-12-04T00:02:59;18.05;;;12.38;;
45784;SDS011;31489;51.404;5.474;2023-12-04T00:05:24;18.27;;;11.95;;
45784;SDS011;31489;51.404;5.474;2023-12-04T00:07:50;16.70;;;10.77;;
45784;SDS011;31489;51.404;5.474;2023-12-04T00:10:16;81.30;;;22.70;;
45784;SDS011;31489;51.404;5.474;2023-12-04T00:12:41;142.20;;;49.80;;
45784;SDS011;31489;51.404;5.474;2023-12-04T00:15:07;46.30;;;23.05;;
45784;SDS011;31489;51.404;5.474;2023-12-04T00:17:33;41.20;;;20.80;;
45784;SDS011;31489;51.404;5.474;2023-12-04T00:19:59;89.47;;;36.42;;
45784;SDS011;31489;51.404;5.474;2023-12-04T00:22:25;207.25;;;62.22;;
45784;SDS011;31489;51.404;5.474;2023-12-04T00:24:50;200.27;;;62.60;;
45784;SDS011;31489;51.404;5.474;2023-12-04T00:27:16;304.77;;;94.75;;
45784;SDS011;31489;51.404;5.474;2023-12-04T00:29:41;266.08;;;78.15;;
45784;SDS011;31489;51.404;5.474;2023-12-04T00:32:07;89.15;;;34.67;;
45784;SDS011;31489;51.404;5.474;2023-12-04T00:34:33;41.38;;;21.05;;
45784;SDS011;31489;51.404;5.474;2023-12-04T00:36:58;31.45;;;16.65;;
45784;SDS011;31489;51.404;5.474;2023-12-04T00:39:27;26.60;;;15.15;;
45784;SDS011;31489;51.404;5.474;2023-12-04T00:41:52;22.60;;;13.93;;
45784;SDS011;31489;51.404;5.474;2023-12-04T00:44:18;25.08;;;12.60;;
45784;SDS011;31489;51.404;5.474;2023-12-04T00:46:43;19.65;;;11.60;;
45784;SDS011;31489;51.404;5.474;2023-12-04T00:49:09;21.15;;;11.90;;
45784;SDS011;31489;51.404;5.474;2023-12-04T00:51:38;20.40;;;12.95;;
45784;SDS011;31489;51.404;5.474;2023-12-04T00:54:04;19.50;;;12.32;;
45784;SDS011;31489;51.404;5.474;2023-12-04T00:56:29;20.10;;;12.35;;
45784;SDS011;31489;51.404;5.474;2023-12-04T00:58:55;17.63;;;10.77;;
45784;SDS011;31489;51.404;5.474;2023-12-04T01:01:20;18.90;;;11.35;;
45784;SDS011;31489;51.404;5.474;2023-12-04T01:03:46;19.05;;;11.63;;
45784;SDS011;31489;51.404;5.474;2023-12-04T01:06:21;17.70;;;11.23;;
45784;SDS011;31489;51.404;5.474;2023-12-04T01:08:48;17.05;;;11.20;;
45784;SDS011;31489;51.404;5.474;2023-12-04T01:11:15;18.83;;;11.63;;
45784;SDS011;31489;51.404;5.474;2023-12-04T01:13:42;15.95;;;11.02;;
45784;SDS011;31489;51.404;5.474;2023-12-04T01:16:08;17.50;;;10.63;;
45784;SDS011;31489;51.404;5.474;2023-12-04T01:18:34;18.17;;;11.00;;
45784;SDS011;31489;51.404;5.474;2023-12-04T01:20:59;17.83;;;10.98;;
45784;SDS011;31489;51.404;5.474;2023-12-04T01:23:25;18.35;;;11.27;;
45784;SDS011;31489;51.404;5.474;2023-12-04T01:25:51;16.85;;;11.10;;
45784;SDS011;31489;51.404;5.474;2023-12-04T01:28:16;15.68;;;10.45;;
45784;SDS011;31489;51.404;5.474;2023-12-04T01:30:42;18.70;;;10.40;;
45784;SDS011;31489;51.404;5.474;2023-12-04T01:33:08;17.60;;;10.32;;
45784;SDS011;31489;51.404;5.474;2023-12-04T01:35:33;16.35;;;10.45;;
45784;SDS011;31489;51.404;5.474;2023-12-04T01:37:59;15.63;;;10.60;;
45784;SDS011;31489;51.404;5.474;2023-12-04T01:40:25;16.67;;;10.68;;
45784;SDS011;31489;51.404;5.474;2023-12-04T01:42:51;15.43;;;10.27;;
45784;SDS011;31489;51.404;5.474;2023-12-04T01:45:17;17.38;;;10.48;;
45784;SDS011;31489;51.404;5.474;2023-12-04T01:47:44;17.00;;;10.82;;
45784;SDS011;31489;51.404;5.474;2023-12-04T01:50:10;15.35;;;10.18;;
45784;SDS011;31489;51.404;5.474;2023-12-04T01:52:37;15.70;;;10.13;;
45784;SDS011;31489;51.404;5.474;2023-12-04T01:55:04;15.50;;;9.65;;
45784;SDS011;31489;51.404;5.474;2023-12-04T01:57:31;15.40;;;9.75;;
45784;SDS011;31489;51.404;5.474;2023-12-04T01:59:57;16.48;;;10.10;;
45784;SDS011;31489;51.404;5.474;2023-12-04T02:02:24;14.25;;;8.82;;
45784;SDS011;31489;51.404;5.474;2023-12-04T02:04:50;15.27;;;9.73;;
45784;SDS011;31489;51.404;5.474;2023-12-04T02:07:16;15.57;;;10.02;;
45784;SDS011;31489;51.404;5.474;2023-12-04T02:09:42;15.05;;;9.70;;
45784;SDS011;31489;51.404;5.474;2023-12-04T02:12:07;14.73;;;9.85;;
45784;SDS011;31489;51.404;5.474;2023-12-04T02:14:34;14.00;;;8.98;;
45784;SDS011;31489;51.404;5.474;2023-12-04T02:16:59;15.18;;;9.80;;
45784;SDS011;31489;51.404;5.474;2023-12-04T02:19:27;13.98;;;9.57;;
45784;SDS011;31489;51.404;5.474;2023-12-04T02:21:53;15.02;;;9.65;;
45784;SDS011;31489;51.404;5.474;2023-12-04T02:24:18;14.60;;;9.52;;
45784;SDS011;31489;51.404;5.474;2023-12-04T02:26:47;14.63;;;9.50;;
45784;SDS011;31489;51.404;5.474;2023-12-04T02:29:23;15.48;;;9.80;;
45784;SDS011;31489;51.404;5.474;2023-12-04T02:31:56;17.13;;;10.20;;
45784;SDS011;31489;51.404;5.474;2023-12-04T02:34:23;15.45;;;9.82;;
45784;SDS011;31489;51.404;5.474;2023-12-04T02:36:50;14.70;;;9.60;;
45784;SDS011;31489;51.404;5.474;2023-12-04T02:39:17;14.23;;;9.05;;
45784;SDS011;31489;51.404;5.474;2023-12-04T02:41:43;15.98;;;9.48;;
45784;SDS011;31489;51.404;5.474;2023-12-04T02:44:09;13.90;;;8.95;;
45784;SDS011;31489;51.404;5.474;2023-12-04T02:46:35;15.50;;;9.77;;
45784;SDS011;31489;51.404;5.474;2023-12-04T02:49:00;14.93;;;9.55;;
45784;SDS011;31489;51.404;5.474;2023-12-04T02:51:26;15.70;;;10.18;;
45784;SDS011;31489;51.404;5.474;2023-12-04T02:53:52;15.32;;;10.27;;
45784;SDS011;31489;51.404;5.474;2023-12-04T02:56:17;15.40;;;9.32;;
45784;SDS011;31489;51.404;5.474;2023-12-04T02:58:43;15.77;;;9.43;;
45784;SDS011;31489;51.404;5.474;2023-12-04T03:01:09;14.02;;;9.57;;
45784;SDS011;31489;51.404;5.474;2023-12-04T03:03:34;14.90;;;9.68;;
45784;SDS011;31489;51.404;5.474;2023-12-04T03:06:00;14.35;;;9.57;;
45784;SDS011;31489;51.404;5.474;2023-12-04T03:08:26;14.60;;;8.88;;
45784;SDS011;31489;51.404;5.474;2023-12-04T03:10:51;14.43;;;9.50;;
45784;SDS011;31489;51.404;5.474;2023-12-04T03:13:17;14.60;;;9.65;;
45784;SDS011;31489;51.404;5.474;2023-12-04T03:15:42;12.65;;;8.50;;
45784;SDS011;31489;51.404;5.474;2023-12-04T03:18:08;19.15;;;9.43;;
45784;SDS011;31489;51.404;5.474;2023-12-04T03:20:34;13.13;;;9.40;;
45784;SDS011;31489;51.404;5.474;2023-12-04T03:23:00;13.38;;;8.93;;
45784;SDS011;31489;51.404;5.474;2023-12-04T03:25:26;13.90;;;8.85;;
45784;SDS011;31489;51.404;5.474;2023-12-04T03:27:51;14.70;;;9.50;;
45784;SDS011;31489;51.404;5.474;2023-12-04T03:30:17;13.27;;;8.90;;
45784;SDS011;31489;51.404;5.474;2023-12-04T03:32:43;12.77;;;8.27;;
45784;SDS011;31489;51.404;5.474;2023-12-04T03:35:08;13.73;;;8.70;;
45784;SDS011;31489;51.404;5.474;2023-12-04T03:37:34;13.77;;;8.75;;
45784;SDS011;31489;51.404;5.474;2023-12-04T03:40:01;13.65;;;8.02;;
45784;SDS011;31489;51.404;5.474;2023-12-04T03:42:26;12.05;;;8.13;;
45784;SDS011;31489;51.404;5.474;2023-12-04T03:44:52;13.43;;;8.68;;
45784;SDS011;31489;51.404;5.474;2023-12-04T03:47:18;13.15;;;8.48;;
45784;SDS011;31489;51.404;5.474;2023-12-04T03:49:43;13.77;;;8.35;;
45784;SDS011;31489;51.404;5.474;2023-12-04T03:52:09;13.07;;;8.45;;
45784;SDS011;31489;51.404;5.474;2023-12-04T03:54:34;14.90;;;9.00;;
45784;SDS011;31489;51.404;5.474;2023-12-04T03:57:00;14.20;;;9.13;;
45784;SDS011;31489;51.404;5.474;2023-12-04T03:59:25;14.05;;;8.77;;
45784;SDS011;31489;51.404;5.474;2023-12-04T04:01:51;17.00;;;8.48;;
45784;SDS011;31489;51.404;5.474;2023-12-04T04:04:17;13.32;;;8.07;;
45784;SDS011;31489;51.404;5.474;2023-12-04T04:06:42;17.02;;;8.82;;
45784;SDS011;31489;51.404;5.474;2023-12-04T04:09:08;14.70;;;8.70;;
45784;SDS011;31489;51.404;5.474;2023-12-04T04:11:34;12.85;;;8.75;;
45784;SDS011;31489;51.404;5.474;2023-12-04T04:14:00;13.20;;;8.98;;
45784;SDS011;31489;51.404;5.474;2023-12-04T04:16:26;16.10;;;9.00;;
45784;SDS011;31489;51.404;5.474;2023-12-04T04:18:51;15.98;;;8.20;;
45784;SDS011;31489;51.404;5.474;2023-12-04T04:21:17;15.57;;;8.10;;
45784;SDS011;31489;51.404;5.474;2023-12-04T04:23:42;12.75;;;8.63;;
45784;SDS011;31489;51.404;5.474;2023-12-04T04:26:08;14.07;;;8.57;;
45784;SDS011;31489;51.404;5.474;2023-12-04T04:28:34;14.60;;;8.80;;
45784;SDS011;31489;51.404;5.474;2023-12-04T04:30:59;12.68;;;8.63;;
45784;SDS011;31489;51.404;5.474;2023-12-04T04:33:25;13.98;;;8.32;;
45784;SDS011;31489;51.404;5.474;2023-12-04T04:35:51;14.20;;;8.85;;
45784;SDS011;31489;51.404;5.474;2023-12-04T04:38:16;13.50;;;8.63;;
45784;SDS011;31489;51.404;5.474;2023-12-04T04:40:42;13.57;;;8.60;;
45784;SDS011;31489;51.404;5.474;2023-12-04T04:43:09;11.90;;;8.05;;
45784;SDS011;31489;51.404;5.474;2023-12-04T04:45:36;14.90;;;8.85;;
45784;SDS011;31489;51.404;5.474;2023-12-04T04:48:01;12.88;;;8.45;;
45784;SDS011;31489;51.404;5.474;2023-12-04T04:50:27;13.30;;;8.13;;
45784;SDS011;31489;51.404;5.474;2023-12-04T04:52:53;11.73;;;7.70;;
45784;SDS011;31489;51.404;5.474;2023-12-04T04:55:18;10.93;;;7.80;;
45784;SDS011;31489;51.404;5.474;2023-12-04T04:57:44;13.63;;;8.10;;
45784;SDS011;31489;51.404;5.474;2023-12-04T05:00:10;12.18;;;8.05;;
45784;SDS011;31489;51.404;5.474;2023-12-04T05:02:36;12.93;;;8.13;;
45784;SDS011;31489;51.404;5.474;2023-12-04T05:05:02;16.77;;;8.95;;
45784;SDS011;31489;51.404;5.474;2023-12-04T05:07:29;12.60;;;7.85;;
45784;SDS011;31489;51.404;5.474;2023-12-04T05:09:54;13.50;;;8.43;;
45784;SDS011;31489;51.404;5.474;2023-12-04T05:12:20;11.43;;;7.45;;
45784;SDS011;31489;51.404;5.474;2023-12-04T05:14:46;15.13;;;7.90;;
45784;SDS011;31489;51.404;5.474;2023-12-04T05:17:11;11.20;;;7.72;;
45784;SDS011;31489;51.404;5.474;2023-12-04T05:19:37;10.65;;;7.68;;
45784;SDS011;31489;51.404;5.474;2023-12-04T05:22:02;10.98;;;7.47;;
45784;SDS011;31489;51.404;5.474;2023-12-04T05:24:28;14.00;;;8.45;;
45784;SDS011;31489;51.404;5.474;2023-12-04T05:26:54;12.38;;;8.30;;
45784;SDS011;31489;51.404;5.474;2023-12-04T05:29:19;12.63;;;8.38;;
45784;SDS011;31489;51.404;5.474;2023-12-04T05:31:45;10.82;;;7.97;;
45784;SDS011;31489;51.404;5.474;2023-12-04T05:34:11;12.20;;;8.27;;
45784;SDS011;31489;51.404;5.474;2023-12-04T05:36:37;13.10;;;8.20;;
45784;SDS011;31489;51.404;5.474;2023-12-04T05:39:03;12.13;;;8.02;;
45784;SDS011;31489;51.404;5.474;2023-12-04T05:41:29;11.50;;;8.10;;
45784;SDS011;31489;51.404;5.474;2023-12-04T05:43:55;10.45;;;7.60;;
45784;SDS011;31489;51.404;5.474;2023-12-04T05:46:21;10.95;;;7.32;;
45784;SDS011;31489;51.404;5.474;2023-12-04T05:48:47;35.03;;;20.90;;
45784;SDS011;31489;51.404;5.474;2023-12-04T05:51:12;13.80;;;9.18;;
45784;SDS011;31489;51.404;5.474;2023-12-04T05:53:39;13.65;;;8.18;;
45784;SDS011;31489;51.404;5.474;2023-12-04T05:56:05;12.30;;;7.50;;
45784;SDS011;31489;51.404;5.474;2023-12-04T05:58:31;11.73;;;7.60;;
45784;SDS011;31489;51.404;5.474;2023-12-04T06:00:57;10.38;;;7.10;;
45784;SDS011;31489;51.404;5.474;2023-12-04T06:03:23;11.25;;;7.00;;
45784;SDS011;31489;51.404;5.474;2023-12-04T06:05:48;12.27;;;7.47;;
45784;SDS011;31489;51.404;5.474;2023-12-04T06:08:14;12.50;;;7.00;;
45784;SDS011;31489;51.404;5.474;2023-12-04T06:10:39;10.10;;;7.03;;
45784;SDS011;31489;51.404;5.474;2023-12-04T06:13:05;10.13;;;7.40;;
45784;SDS011;31489;51.404;5.474;2023-12-04T06:15:31;10.95;;;7.50;;
45784;SDS011;31489;51.404;5.474;2023-12-04T06:17:57;9.63;;;6.70;;
45784;SDS011;31489;51.404;5.474;2023-12-04T06:20:22;9.50;;;6.80;;
45784;SDS011;31489;51.404;5.474;2023-12-04T06:22:48;9.80;;;6.93;;
45784;SDS011;31489;51.404;5.474;2023-12-04T06:25:14;11.98;;;7.20;;
45784;SDS011;31489;51.404;5.474;2023-12-04T06:27:40;11.30;;;6.53;;
45784;SDS011;31489;51.404;5.474;2023-12-04T06:30:06;9.43;;;6.38;;
45784;SDS011;31489;51.404;5.474;2023-12-04T06:32:32;9.20;;;6.63;;
45784;SDS011;31489;51.404;5.474;2023-12-04T06:34:58;11.40;;;6.78;;
45784;SDS011;31489;51.404;5.474;2023-12-04T06:37:24;9.38;;;6.82;;
45784;SDS011;31489;51.404;5.474;2023-12-04T06:39:50;9.55;;;7.18;;
45784;SDS011;31489;51.404;5.474;2023-12-04T06:42:18;8.82;;;6.50;;
45784;SDS011;31489;51.404;5.474;2023-12-04T06:44:45;8.90;;;6.07;;
45784;SDS011;31489;51.404;5.474;2023-12-04T06:47:11;8.85;;;6.07;;
45784;SDS011;31489;51.404;5.474;2023-12-04T06:49:37;8.65;;;6.60;;
45784;SDS011;31489;51.404;5.474;2023-12-04T06:52:03;8.35;;;5.65;;
45784;SDS011;31489;51.404;5.474;2023-12-04T06:54:29;9.25;;;6.22;;
45784;SDS011;31489;51.404;5.474;2023-12-04T06:56:55;10.07;;;6.07;;
45784;SDS011;31489;51.404;5.474;2023-12-04T06:59:22;8.57;;;6.35;;
45784;SDS011;31489;51.404;5.474;2023-12-04T07:01:48;9.25;;;6.20;;
45784;SDS011;31489;51.404;5.474;2023-12-04T07:04:13;9.32;;;6.13;;
45784;SDS011;31489;51.404;5.474;2023-12-04T07:06:45;11.13;;;6.28;;
45784;SDS011;31489;51.404;5.474;2023-12-04T07:09:11;7.30;;;5.43;;
45784;SDS011;31489;51.404;5.474;2023-12-04T07:11:37;10.27;;;6.38;;
45784;SDS011;31489;51.404;5.474;2023-12-04T07:14:02;7.47;;;5.47;;
45784;SDS011;31489;51.404;5.474;2023-12-04T07:16:28;9.45;;;6.28;;
45784;SDS011;31489;51.404;5.474;2023-12-04T07:18:53;8.52;;;5.82;;
45784;SDS011;31489;51.404;5.474;2023-12-04T07:21:20;8.80;;;5.90;;
45784;SDS011;31489;51.404;5.474;2023-12-04T07:23:46;7.78;;;5.07;;
45784;SDS011;31489;51.404;5.474;2023-12-04T07:26:12;7.20;;;5.63;;
45784;SDS011;31489;51.404;5.474;2023-12-04T07:28:38;7.00;;;5.43;;
45784;SDS011;31489;51.404;5.474;2023-12-04T07:31:03;7.05;;;5.22;;
45784;SDS011;31489;51.404;5.474;2023-12-04T07:33:29;8.07;;;5.38;;
45784;SDS011;31489;51.404;5.474;2023-12-04T07:35:55;8.30;;;5.00;;
45784;SDS011;31489;51.404;5.474;2023-12-04T07:38:20;7.80;;;4.95;;
45784;SDS011;31489;51.404;5.474;2023-12-04T07:40:46;7.47;;;5.53;;
45784;SDS011;31489;51.404;5.474;2023-12-04T07:43:12;9.32;;;5.47;;
45784;SDS011;31489;51.404;5.474;2023-12-04T07:45:39;6.82;;;5.22;;
45784;SDS011;31489;51.404;5.474;2023-12-04T07:48:06;6.28;;;4.72;;
45784;SDS011;31489;51.404;5.474;2023-12-04T07:50:32;8.32;;;5.47;;
45784;SDS011;31489;51.404;5.474;2023-12-04T07:52:57;7.20;;;5.30;;
45784;SDS011;31489;51.404;5.474;2023-12-04T07:55:23;6.25;;;4.70;;
45784;SDS011;31489;51.404;5.474;2023-12-04T07:57:48;8.07;;;5.70;;
45784;SDS011;31489;51.404;5.474;2023-12-04T08:00:15;7.80;;;5.32;;
45784;SDS011;31489;51.404;5.474;2023-12-04T08:02:43;7.60;;;5.05;;
45784;SDS011;31489;51.404;5.474;2023-12-04T08:05:10;9.25;;;5.10;;
45784;SDS011;31489;51.404;5.474;2023-12-04T08:07:35;8.07;;;5.38;;
45784;SDS011;31489;51.404;5.474;2023-12-04T08:10:01;8.02;;;5.47;;
45784;SDS011;31489;51.404;5.474;2023-12-04T08:12:27;8.60;;;5.60;;
45784;SDS011;31489;51.404;5.474;2023-12-04T08:14:52;7.78;;;5.30;;
45784;SDS011;31489;51.404;5.474;2023-12-04T08:17:18;6.60;;;4.97;;
45784;SDS011;31489;51.404;5.474;2023-12-04T08:19:44;6.95;;;5.10;;
45784;SDS011;31489;51.404;5.474;2023-12-04T08:22:09;7.82;;;5.63;;
45784;SDS011;31489;51.404;5.474;2023-12-04T08:24:35;7.22;;;5.03;;
45784;SDS011;31489;51.404;5.474;2023-12-04T08:27:00;6.60;;;4.97;;
45784;SDS011;31489;51.404;5.474;2023-12-04T08:29:26;7.55;;;5.22;;
45784;SDS011;31489;51.404;5.474;2023-12-04T08:31:52;6.35;;;4.85;;
45784;SDS011;31489;51.404;5.474;2023-12-04T08:34:17;7.90;;;5.53;;
45784;SDS011;31489;51.404;5.474;2023-12-04T08:36:43;6.88;;;5.03;;
45784;SDS011;31489;51.404;5.474;2023-12-04T08:39:08;6.57;;;5.05;;
45784;SDS011;31489;51.404;5.474;2023-12-04T08:41:34;7.07;;;5.32;;
45784;SDS011;31489;51.404;5.474;2023-12-04T08:44:00;7.45;;;5.50;;
45784;SDS011;31489;51.404;5.474;2023-12-04T08:46:26;8.98;;;5.35;;
45784;SDS011;31489;51.404;5.474;2023-12-04T08:48:52;6.47;;;5.20;;
45784;SDS011;31489;51.404;5.474;2023-12-04T08:51:18;7.55;;;5.05;;
45784;SDS011;31489;51.404;5.474;2023-12-04T08:53:44;8.63;;;5.70;;
45784;SDS011;31489;51.404;5.474;2023-12-04T08:56:09;7.57;;;5.35;;
45784;SDS011;31489;51.404;5.474;2023-12-04T08:58:36;7.03;;;5.00;;
45784;SDS011;31489;51.404;5.474;2023-12-04T09:01:02;9.23;;;5.60;;
45784;SDS011;31489;51.404;5.474;2023-12-04T09:03:28;6.97;;;4.95;;
45784;SDS011;31489;51.404;5.474;2023-12-04T09:05:56;7.03;;;4.82;;
45784;SDS011;31489;51.404;5.474;2023-12-04T09:08:22;6.25;;;4.82;;
45784;SDS011;31489;51.404;5.474;2023-12-04T09:10:50;7.43;;;5.20;;
45784;SDS011;31489;51.404;5.474;2023-12-04T09:13:16;6.25;;;5.13;;
45784;SDS011;31489;51.404;5.474;2023-12-04T09:15:41;7.15;;;5.03;;
45784;SDS011;31489;51.404;5.474;2023-12-04T09:18:07;8.57;;;5.40;;
45784;SDS011;31489;51.404;5.474;2023-12-04T09:20:33;7.13;;;5.07;;
45784;SDS011;31489;51.404;5.474;2023-12-04T09:22:58;7.28;;;4.70;;
45784;SDS011;31489;51.404;5.474;2023-12-04T09:25:24;6.50;;;5.00;;
45784;SDS011;31489;51.404;5.474;2023-12-04T09:27:50;7.97;;;5.25;;
45784;SDS011;31489;51.404;5.474;2023-12-04T09:30:15;7.07;;;5.25;;
45784;SDS011;31489;51.404;5.474;2023-12-04T09:32:41;7.10;;;5.18;;
45784;SDS011;31489;51.404;5.474;2023-12-04T09:35:07;7.57;;;5.53;;
45784;SDS011;31489;51.404;5.474;2023-12-04T09:37:32;9.13;;;5.70;;
45784;SDS011;31489;51.404;5.474;2023-12-04T09:39:58;7.65;;;5.65;;
45784;SDS011;31489;51.404;5.474;2023-12-04T09:42:24;7.25;;;5.40;;
45784;SDS011;31489;51.404;5.474;2023-12-04T09:44:49;7.53;;;5.55;;
45784;SDS011;31489;51.404;5.474;2023-12-04T09:47:17;8.73;;;5.65;;
45784;SDS011;31489;51.404;5.474;2023-12-04T09:49:44;8.57;;;5.43;;
45784;SDS011;31489;51.404;5.474;2023-12-04T09:52:10;10.98;;;5.50;;
45784;SDS011;31489;51.404;5.474;2023-12-04T09:54:36;8.25;;;5.72;;
45784;SDS011;31489;51.404;5.474;2023-12-04T09:57:04;7.93;;;5.95;;
45784;SDS011;31489;51.404;5.474;2023-12-04T09:59:30;15.18;;;5.95;;
45784;SDS011;31489;51.404;5.474;2023-12-04T10:01:56;10.25;;;6.10;;
45784;SDS011;31489;51.404;5.474;2023-12-04T10:04:23;7.90;;;6.07;;
45784;SDS011;31489;51.404;5.474;2023-12-04T10:06:50;7.72;;;5.72;;
45784;SDS011;31489;51.404;5.474;2023-12-04T10:09:18;7.97;;;5.68;;
45784;SDS011;31489;51.404;5.474;2023-12-04T10:11:44;7.60;;;5.47;;
45784;SDS011;31489;51.404;5.474;2023-12-04T10:14:17;8.48;;;5.88;;
45784;SDS011;31489;51.404;5.474;2023-12-04T10:16:44;8.80;;;5.85;;
45784;SDS011;31489;51.404;5.474;2023-12-04T10:19:14;6.70;;;5.13;;
45784;SDS011;31489;51.404;5.474;2023-12-04T10:21:43;11.23;;;6.40;;
45784;SDS011;31489;51.404;5.474;2023-12-04T10:24:11;7.15;;;5.32;;
45784;SDS011;31489;51.404;5.474;2023-12-04T10:26:37;9.45;;;6.60;;
45784;SDS011;31489;51.404;5.474;2023-12-04T10:29:04;9.10;;;6.68;;
45784;SDS011;31489;51.404;5.474;2023-12-04T10:31:33;8.90;;;5.95;;
45784;SDS011;31489;51.404;5.474;2023-12-04T10:33:59;8.68;;;6.20;;
45784;SDS011;31489;51.404;5.474;2023-12-04T10:36:25;9.77;;;6.43;;
45784;SDS011;31489;51.404;5.474;2023-12-04T10:39:00;11.38;;;7.15;;
45784;SDS011;31489;51.404;5.474;2023-12-04T10:41:26;10.55;;;7.13;;
45784;SDS011;31489;51.404;5.474;2023-12-04T10:43:52;10.40;;;7.03;;
45784;SDS011;31489;51.404;5.474;2023-12-04T10:46:20;11.60;;;7.20;;
45784;SDS011;31489;51.404;5.474;2023-12-04T10:48:47;9.75;;;6.63;;
45784;SDS011;31489;51.404;5.474;2023-12-04T10:51:13;9.32;;;6.82;;
45784;SDS011;31489;51.404;5.474;2023-12-04T10:53:42;10.77;;;7.15;;
45784;SDS011;31489;51.404;5.474;2023-12-04T10:56:10;12.52;;;7.65;;
45784;SDS011;31489;51.404;5.474;2023-12-04T10:58:38;11.43;;;7.53;;
45784;SDS011;31489;51.404;5.474;2023-12-04T11:01:06;10.40;;;6.53;;
45784;SDS011;31489;51.404;5.474;2023-12-04T11:03:51;9.98;;;7.00;;
45784;SDS011;31489;51.404;5.474;2023-12-04T11:06:20;9.65;;;7.30;;
45784;SDS011;31489;51.404;5.474;2023-12-04T11:08:50;10.82;;;7.70;;
45784;SDS011;31489;51.404;5.474;2023-12-04T11:11:19;10.25;;;7.30;;
45784;SDS011;31489;51.404;5.474;2023-12-04T11:13:59;10.70;;;7.68;;
45784;SDS011;31489;51.404;5.474;2023-12-04T11:19:16;11.57;;;8.27;;
45784;SDS011;31489;51.404;5.474;2023-12-04T11:22:04;9.88;;;7.05;;
45784;SDS011;31489;51.404;5.474;2023-12-04T11:24:32;9.90;;;7.30;;
45784;SDS011;31489;51.404;5.474;2023-12-04T11:27:00;12.27;;;8.45;;
45784;SDS011;31489;51.404;5.474;2023-12-04T11:29:25;10.43;;;7.68;;
45784;SDS011;31489;51.404;5.474;2023-12-04T11:31:53;12.27;;;7.75;;
45784;SDS011;31489;51.404;5.474;2023-12-04T11:34:18;10.02;;;7.32;;
45784;SDS011;31489;51.404;5.474;2023-12-04T11:36:44;10.30;;;7.32;;
45784;SDS011;31489;51.404;5.474;2023-12-04T11:39:10;12.27;;;7.68;;
45784;SDS011;31489;51.404;5.474;2023-12-04T11:41:36;10.15;;;7.65;;
45784;SDS011;31489;51.404;5.474;2023-12-04T11:44:03;10.02;;;7.07;;
45784;SDS011;31489;51.404;5.474;2023-12-04T11:46:36;10.45;;;6.55;;
45784;SDS011;31489;51.404;5.474;2023-12-04T11:51:57;9.32;;;6.70;;
45784;SDS011;31489;51.404;5.474;2023-12-04T11:54:23;10.00;;;6.95;;
45784;SDS011;31489;51.404;5.474;2023-12-04T11:59:39;9.73;;;7.20;;
45784;SDS011;31489;51.404;5.474;2023-12-04T12:02:09;9.65;;;6.95;;
45784;SDS011;31489;51.404;5.474;2023-12-04T12:04:36;12.93;;;7.35;;
45784;SDS011;31489;51.404;5.474;2023-12-04T12:07:02;10.32;;;7.40;;
45784;SDS011;31489;51.404;5.474;2023-12-04T12:09:30;12.10;;;6.72;;
45784;SDS011;31489;51.404;5.474;2023-12-04T12:11:58;9.93;;;6.88;;
45784;SDS011;31489;51.404;5.474;2023-12-04T12:14:28;8.90;;;6.53;;
45784;SDS011;31489;51.404;5.474;2023-12-04T12:16:55;8.85;;;6.75;;
45784;SDS011;31489;51.404;5.474;2023-12-04T12:19:20;9.25;;;6.28;;
45784;SDS011;31489;51.404;5.474;2023-12-04T12:21:47;8.23;;;6.53;;
45784;SDS011;31489;51.404;5.474;2023-12-04T12:24:14;10.05;;;6.70;;
45784;SDS011;31489;51.404;5.474;2023-12-04T12:26:40;10.32;;;6.57;;
45784;SDS011;31489;51.404;5.474;2023-12-04T12:29:06;9.10;;;6.65;;
45784;SDS011;31489;51.404;5.474;2023-12-04T12:31:34;9.45;;;6.45;;
45784;SDS011;31489;51.404;5.474;2023-12-04T12:34:00;8.23;;;6.22;;
45784;SDS011;31489;51.404;5.474;2023-12-04T12:36:25;11.38;;;6.90;;
45784;SDS011;31489;51.404;5.474;2023-12-04T12:38:52;8.52;;;6.68;;
45784;SDS011;31489;51.404;5.474;2023-12-04T12:41:18;9.38;;;6.57;;
45784;SDS011;31489;51.404;5.474;2023-12-04T12:43:45;9.90;;;6.47;;
45784;SDS011;31489;51.404;5.474;2023-12-04T12:46:11;9.57;;;6.60;;
45784;SDS011;31489;51.404;5.474;2023-12-04T12:48:36;8.80;;;6.40;;
45784;SDS011;31489;51.404;5.474;2023-12-04T12:51:02;10.20;;;6.82;;
45784;SDS011;31489;51.404;5.474;2023-12-04T12:53:28;9.88;;;7.10;;
45784;SDS011;31489;51.404;5.474;2023-12-04T12:55:57;10.13;;;6.93;;
45784;SDS011;31489;51.404;5.474;2023-12-04T12:58:25;16.00;;;11.30;;
45784;SDS011;31489;51.404;5.474;2023-12-04T13:00:50;11.90;;;7.63;;
45784;SDS011;31489;51.404;5.474;2023-12-04T13:03:16;9.20;;;6.95;;
45784;SDS011;31489;51.404;5.474;2023-12-04T13:05:42;9.85;;;6.93;;
45784;SDS011;31489;51.404;5.474;2023-12-04T13:08:08;8.82;;;6.82;;
45784;SDS011;31489;51.404;5.474;2023-12-04T13:10:36;9.00;;;6.90;;
45784;SDS011;31489;51.404;5.474;2023-12-04T13:13:02;8.82;;;6.45;;
45784;SDS011;31489;51.404;5.474;2023-12-04T13:15:27;10.13;;;6.60;;
45784;SDS011;31489;51.404;5.474;2023-12-04T13:17:53;9.20;;;6.53;;
45784;SDS011;31489;51.404;5.474;2023-12-04T13:20:19;9.82;;;7.05;;
45784;SDS011;31489;51.404;5.474;2023-12-04T13:22:45;9.15;;;7.00;;
45784;SDS011;31489;51.404;5.474;2023-12-04T13:25:10;8.85;;;6.60;;
45784;SDS011;31489;51.404;5.474;2023-12-04T13:27:39;8.75;;;6.63;;
45784;SDS011;31489;51.404;5.474;2023-12-04T13:30:05;10.15;;;6.85;;
45784;SDS011;31489;51.404;5.474;2023-12-04T13:32:33;10.05;;;6.80;;
45784;SDS011;31489;51.404;5.474;2023-12-04T13:35:03;12.05;;;6.78;;
45784;SDS011;31489;51.404;5.474;2023-12-04T13:37:30;8.52;;;6.70;;
45784;SDS011;31489;51.404;5.474;2023-12-04T13:39:56;9.07;;;6.60;;
45784;SDS011;31489;51.404;5.474;2023-12-04T13:42:31;8.77;;;6.43;;
45784;SDS011;31489;51.404;5.474;2023-12-04T13:45:18;8.55;;;6.28;;
45784;SDS011;31489;51.404;5.474;2023-12-04T13:47:47;11.27;;;6.43;;
45784;SDS011;31489;51.404;5.474;2023-12-04T13:50:13;9.65;;;6.53;;
45784;SDS011;31489;51.404;5.474;2023-12-04T13:52:38;9.68;;;6.70;;
45784;SDS011;31489;51.404;5.474;2023-12-04T13:55:04;8.52;;;6.07;;
45784;SDS011;31489;51.404;5.474;2023-12-04T13:57:44;8.15;;;5.60;;
45784;SDS011;31489;51.404;5.474;2023-12-04T14:00:23;7.85;;;5.53;;
45784;SDS011;31489;51.404;5.474;2023-12-04T14:02:48;8.20;;;6.30;;
45784;SDS011;31489;51.404;5.474;2023-12-04T14:05:18;8.07;;;6.10;;
45784;SDS011;31489;51.404;5.474;2023-12-04T14:07:47;8.82;;;5.75;;
45784;SDS011;31489;51.404;5.474;2023-12-04T14:10:13;8.00;;;6.10;;
45784;SDS011;31489;51.404;5.474;2023-12-04T14:12:39;10.65;;;6.07;;
45784;SDS011;31489;51.404;5.474;2023-12-04T14:15:05;8.95;;;6.30;;
45784;SDS011;31489;51.404;5.474;2023-12-04T14:17:31;10.35;;;6.55;;
45784;SDS011;31489;51.404;5.474;2023-12-04T14:19:58;8.88;;;5.80;;
45784;SDS011;31489;51.404;5.474;2023-12-04T14:22:24;10.10;;;6.57;;
45784;SDS011;31489;51.404;5.474;2023-12-04T14:24:50;9.65;;;6.82;;
45784;SDS011;31489;51.404;5.474;2023-12-04T14:27:16;9.43;;;7.00;;
45784;SDS011;31489;51.404;5.474;2023-12-04T14:29:43;9.68;;;6.40;;
45784;SDS011;31489;51.404;5.474;2023-12-04T14:32:09;9.02;;;6.32;;
45784;SDS011;31489;51.404;5.474;2023-12-04T14:34:35;9.63;;;6.97;;
45784;SDS011;31489;51.404;5.474;2023-12-04T14:37:01;9.48;;;7.50;;
45784;SDS011;31489;51.404;5.474;2023-12-04T14:39:26;10.27;;;7.05;;
45784;SDS011;31489;51.404;5.474;2023-12-04T14:41:52;12.13;;;6.70;;